sensor_id;sensor_type;location;lat;lon;timestamp;pressure;altitude;pressure_sealevel;temperature;humidity
52935;BME280;38802;50.198;19.796;2023-02-23T00:02:18;96275.42;;;-1.12;80.93
52935;BME280;38802;50.198;19.796;2023-02-23T00:04:46;96271.40;;;-1.13;81.06
52935;BME280;38802;50.198;19.796;2023-02-23T00:07:15;96270.93;;;-1.15;81.19
52935;BME280;38802;50.198;19.796;2023-02-23T00:09:46;96267.23;;;-1.16;80.89
52935;BME280;38802;50.198;19.796;2023-02-23T00:12:15;96260.95;;;-1.17;80.55
52935;BME280;38802;50.198;19.796;2023-02-23T00:14:44;96255.89;;;-1.19;81.40
52935;BME280;38802;50.198;19.796;2023-02-23T00:17:12;96255.23;;;-1.19;81.30
52935;BME280;38802;50.198;19.796;2023-02-23T00:19:41;96251.14;;;-1.24;81.25
52935;BME280;38802;50.198;19.796;2023-02-23T00:22:12;96252.77;;;-1.26;81.52
52935;BME280;38802;50.198;19.796;2023-02-23T00:24:40;96252.30;;;-1.28;81.42
52935;BME280;38802;50.198;19.796;2023-02-23T00:27:13;96253.57;;;-1.30;81.46
52935;BME280;38802;50.198;19.796;2023-02-23T00:29:47;96250.66;;;-1.30;80.97
52935;BME280;38802;50.198;19.796;2023-02-23T00:32:17;96245.86;;;-1.29;81.41
52935;BME280;38802;50.198;19.796;2023-02-23T00:34:50;96249.72;;;-1.27;81.31
52935;BME280;38802;50.198;19.796;2023-02-23T00:37:19;96249.81;;;-1.30;81.44
52935;BME280;38802;50.198;19.796;2023-02-23T00:39:49;96249.65;;;-1.30;81.37
52935;BME280;38802;50.198;19.796;2023-02-23T00:42:19;96251.55;;;-1.31;81.42
52935;BME280;38802;50.198;19.796;2023-02-23T00:44:47;96254.20;;;-1.34;81.25
52935;BME280;38802;50.198;19.796;2023-02-23T00:47:16;96254.45;;;-1.36;81.42
52935;BME280;38802;50.198;19.796;2023-02-23T00:49:44;96255.18;;;-1.38;81.85
52935;BME280;38802;50.198;19.796;2023-02-23T00:52:12;96255.36;;;-1.38;81.56
52935;BME280;38802;50.198;19.796;2023-02-23T00:54:41;96259.92;;;-1.37;81.52
52935;BME280;38802;50.198;19.796;2023-02-23T00:57:09;96260.63;;;-1.37;81.59
52935;BME280;38802;50.198;19.796;2023-02-23T00:59:37;96258.85;;;-1.35;81.23
52935;BME280;38802;50.198;19.796;2023-02-23T01:02:05;96259.02;;;-1.35;81.39
52935;BME280;38802;50.198;19.796;2023-02-23T01:04:33;96257.84;;;-1.35;81.43
52935;BME280;38802;50.198;19.796;2023-02-23T01:07:01;96258.86;;;-1.36;81.62
52935;BME280;38802;50.198;19.796;2023-02-23T01:09:33;96253.98;;;-1.37;81.56
52935;BME280;38802;50.198;19.796;2023-02-23T01:12:05;96256.55;;;-1.38;81.55
52935;BME280;38802;50.198;19.796;2023-02-23T01:14:35;96255.11;;;-1.40;81.82
52935;BME280;38802;50.198;19.796;2023-02-23T01:17:04;96250.34;;;-1.40;82.24
52935;BME280;38802;50.198;19.796;2023-02-23T01:19:36;96250.32;;;-1.44;81.91
52935;BME280;38802;50.198;19.796;2023-02-23T01:22:04;96249.47;;;-1.44;81.97
52935;BME280;38802;50.198;19.796;2023-02-23T01:24:32;96251.55;;;-1.46;81.89
52935;BME280;38802;50.198;19.796;2023-02-23T01:27:04;96245.61;;;-1.46;81.95
52935;BME280;38802;50.198;19.796;2023-02-23T01:29:34;96244.79;;;-1.47;82.43
52935;BME280;38802;50.198;19.796;2023-02-23T01:32:01;96241.58;;;-1.48;82.24
52935;BME280;38802;50.198;19.796;2023-02-23T01:34:31;96241.45;;;-1.49;82.36
52935;BME280;38802;50.198;19.796;2023-02-23T01:36:59;96238.69;;;-1.53;82.28
52935;BME280;38802;50.198;19.796;2023-02-23T01:39:28;96235.17;;;-1.54;82.23
52935;BME280;38802;50.198;19.796;2023-02-23T01:41:56;96234.95;;;-1.58;82.47
52935;BME280;38802;50.198;19.796;2023-02-23T01:46:52;96232.73;;;-1.58;82.76
52935;BME280;38802;50.198;19.796;2023-02-23T01:49:27;96231.39;;;-1.58;83.01
52935;BME280;38802;50.198;19.796;2023-02-23T01:52:03;96232.60;;;-1.64;82.58
52935;BME280;38802;50.198;19.796;2023-02-23T01:54:36;96225.13;;;-1.64;82.79
52935;BME280;38802;50.198;19.796;2023-02-23T01:57:07;96222.78;;;-1.66;82.83
52935;BME280;38802;50.198;19.796;2023-02-23T01:59:42;96219.83;;;-1.64;83.07
52935;BME280;38802;50.198;19.796;2023-02-23T02:02:11;96220.29;;;-1.68;83.07
52935;BME280;38802;50.198;19.796;2023-02-23T02:04:41;96218.20;;;-1.66;82.98
52935;BME280;38802;50.198;19.796;2023-02-23T02:07:25;96212.91;;;-1.66;83.02
52935;BME280;38802;50.198;19.796;2023-02-23T02:09:56;96212.23;;;-1.66;82.87
52935;BME280;38802;50.198;19.796;2023-02-23T02:12:43;96211.56;;;-1.66;83.38
52935;BME280;38802;50.198;19.796;2023-02-23T02:15:12;96210.67;;;-1.70;83.37
52935;BME280;38802;50.198;19.796;2023-02-23T02:18:10;96212.33;;;-1.69;83.05
52935;BME280;38802;50.198;19.796;2023-02-23T02:24:11;96209.20;;;-1.67;83.53
52935;BME280;38802;50.198;19.796;2023-02-23T02:27:20;96202.86;;;-1.71;83.71
52935;BME280;38802;50.198;19.796;2023-02-23T02:32:54;96203.83;;;-1.69;83.63
52935;BME280;38802;50.198;19.796;2023-02-23T02:40:52;96198.61;;;-1.71;83.81
52935;BME280;38802;50.198;19.796;2023-02-23T02:43:37;96193.66;;;-1.71;83.83
52935;BME280;38802;50.198;19.796;2023-02-23T02:46:17;96187.76;;;-1.72;83.57
52935;BME280;38802;50.198;19.796;2023-02-23T02:49:02;96184.20;;;-1.74;83.90
52935;BME280;38802;50.198;19.796;2023-02-23T02:52:01;96180.46;;;-1.73;83.85
52935;BME280;38802;50.198;19.796;2023-02-23T02:54:40;96179.34;;;-1.75;84.13
52935;BME280;38802;50.198;19.796;2023-02-23T02:57:11;96175.59;;;-1.75;84.03
52935;BME280;38802;50.198;19.796;2023-02-23T02:59:44;96181.03;;;-1.76;84.07
52935;BME280;38802;50.198;19.796;2023-02-23T03:02:37;96178.35;;;-1.77;83.86
52935;BME280;38802;50.198;19.796;2023-02-23T03:05:46;96178.38;;;-1.77;83.91
52935;BME280;38802;50.198;19.796;2023-02-23T03:08:38;96179.13;;;-1.80;83.81
52935;BME280;38802;50.198;19.796;2023-02-23T03:11:33;96178.61;;;-1.79;83.77
52935;BME280;38802;50.198;19.796;2023-02-23T03:14:27;96175.15;;;-1.78;83.81
52935;BME280;38802;50.198;19.796;2023-02-23T03:17:43;96173.21;;;-1.76;84.03
52935;BME280;38802;50.198;19.796;2023-02-23T03:23:23;96166.92;;;-1.81;84.11
52935;BME280;38802;50.198;19.796;2023-02-23T03:29:17;96164.58;;;-1.87;84.10
52935;BME280;38802;50.198;19.796;2023-02-23T03:32:15;96166.00;;;-1.88;84.34
52935;BME280;38802;50.198;19.796;2023-02-23T03:35:32;96169.80;;;-1.90;84.10
52935;BME280;38802;50.198;19.796;2023-02-23T03:41:27;96171.41;;;-1.93;83.97
52935;BME280;38802;50.198;19.796;2023-02-23T03:44:18;96166.66;;;-1.93;84.15
52935;BME280;38802;50.198;19.796;2023-02-23T03:47:09;96166.59;;;-1.91;84.25
52935;BME280;38802;50.198;19.796;2023-02-23T03:50:01;96169.54;;;-1.92;84.29
52935;BME280;38802;50.198;19.796;2023-02-23T03:52:52;96172.22;;;-1.91;84.30
52935;BME280;38802;50.198;19.796;2023-02-23T03:55:42;96177.02;;;-1.93;84.26
52935;BME280;38802;50.198;19.796;2023-02-23T03:58:36;96172.91;;;-1.92;84.19
52935;BME280;38802;50.198;19.796;2023-02-23T04:01:25;96175.51;;;-1.93;83.90
52935;BME280;38802;50.198;19.796;2023-02-23T04:04:13;96177.22;;;-1.93;84.10
52935;BME280;38802;50.198;19.796;2023-02-23T04:07:01;96173.73;;;-1.96;84.14
52935;BME280;38802;50.198;19.796;2023-02-23T04:09:49;96171.84;;;-1.95;84.12
52935;BME280;38802;50.198;19.796;2023-02-23T04:16:02;96167.98;;;-1.97;83.99
52935;BME280;38802;50.198;19.796;2023-02-23T04:18:34;96168.43;;;-2.00;84.22
52935;BME280;38802;50.198;19.796;2023-02-23T04:21:03;96166.85;;;-1.98;84.25
52935;BME280;38802;50.198;19.796;2023-02-23T04:23:33;96167.27;;;-2.01;84.26
52935;BME280;38802;50.198;19.796;2023-02-23T04:26:01;96167.55;;;-2.04;84.19
52935;BME280;38802;50.198;19.796;2023-02-23T04:28:31;96165.21;;;-2.05;84.23
52935;BME280;38802;50.198;19.796;2023-02-23T04:30:59;96165.73;;;-2.06;84.30
52935;BME280;38802;50.198;19.796;2023-02-23T04:33:28;96166.86;;;-2.04;84.30
52935;BME280;38802;50.198;19.796;2023-02-23T04:35:56;96165.27;;;-2.02;84.21
52935;BME280;38802;50.198;19.796;2023-02-23T04:38:24;96166.45;;;-2.02;84.30
52935;BME280;38802;50.198;19.796;2023-02-23T04:40:52;96165.02;;;-2.00;84.43
52935;BME280;38802;50.198;19.796;2023-02-23T04:43:20;96165.18;;;-1.99;84.27
52935;BME280;38802;50.198;19.796;2023-02-23T04:45:48;96162.38;;;-2.02;84.33
52935;BME280;38802;50.198;19.796;2023-02-23T04:48:17;96158.12;;;-2.02;84.47
52935;BME280;38802;50.198;19.796;2023-02-23T04:50:45;96157.00;;;-2.04;84.15
52935;BME280;38802;50.198;19.796;2023-02-23T04:53:13;96157.95;;;-2.02;84.46
52935;BME280;38802;50.198;19.796;2023-02-23T04:55:41;96158.16;;;-2.03;84.41
52935;BME280;38802;50.198;19.796;2023-02-23T04:58:10;96153.94;;;-2.04;84.34
52935;BME280;38802;50.198;19.796;2023-02-23T05:00:40;96154.46;;;-2.04;84.47
52935;BME280;38802;50.198;19.796;2023-02-23T05:03:08;96152.82;;;-2.06;84.65
52935;BME280;38802;50.198;19.796;2023-02-23T05:05:37;96152.87;;;-2.07;84.52
52935;BME280;38802;50.198;19.796;2023-02-23T05:08:06;96157.07;;;-2.06;84.48
52935;BME280;38802;50.198;19.796;2023-02-23T05:10:35;96154.41;;;-2.03;84.48
52935;BME280;38802;50.198;19.796;2023-02-23T05:13:06;96152.75;;;-2.04;84.46
52935;BME280;38802;50.198;19.796;2023-02-23T05:15:34;96156.04;;;-2.06;84.39
52935;BME280;38802;50.198;19.796;2023-02-23T05:18:04;96153.04;;;-2.12;84.20
52935;BME280;38802;50.198;19.796;2023-02-23T05:20:32;96152.80;;;-2.16;84.63
52935;BME280;38802;50.198;19.796;2023-02-23T05:23:00;96152.67;;;-2.17;84.59
52935;BME280;38802;50.198;19.796;2023-02-23T05:25:28;96153.81;;;-2.21;84.61
52935;BME280;38802;50.198;19.796;2023-02-23T05:27:55;96154.80;;;-2.25;84.82
52935;BME280;38802;50.198;19.796;2023-02-23T05:30:23;96156.93;;;-2.28;84.59
52935;BME280;38802;50.198;19.796;2023-02-23T05:32:51;96157.42;;;-2.27;84.50
52935;BME280;38802;50.198;19.796;2023-02-23T05:35:20;96160.23;;;-2.25;85.03
52935;BME280;38802;50.198;19.796;2023-02-23T05:37:48;96161.67;;;-2.27;85.06
52935;BME280;38802;50.198;19.796;2023-02-23T05:40:16;96160.58;;;-2.30;85.31
52935;BME280;38802;50.198;19.796;2023-02-23T05:42:44;96162.36;;;-2.33;85.04
52935;BME280;38802;50.198;19.796;2023-02-23T05:45:12;96164.74;;;-2.33;84.98
52935;BME280;38802;50.198;19.796;2023-02-23T05:47:41;96164.61;;;-2.34;84.85
52935;BME280;38802;50.198;19.796;2023-02-23T05:50:09;96163.11;;;-2.35;85.01
52935;BME280;38802;50.198;19.796;2023-02-23T05:52:39;96167.30;;;-2.38;84.95
52935;BME280;38802;50.198;19.796;2023-02-23T05:55:10;96168.60;;;-2.36;85.03
52935;BME280;38802;50.198;19.796;2023-02-23T05:57:38;96171.27;;;-2.34;85.19
52935;BME280;38802;50.198;19.796;2023-02-23T06:00:10;96168.95;;;-2.36;85.47
52935;BME280;38802;50.198;19.796;2023-02-23T06:02:40;96170.48;;;-2.36;85.53
52935;BME280;38802;50.198;19.796;2023-02-23T06:05:10;96171.29;;;-2.35;85.57
52935;BME280;38802;50.198;19.796;2023-02-23T06:07:38;96168.78;;;-2.37;85.47
52935;BME280;38802;50.198;19.796;2023-02-23T06:10:06;96169.70;;;-2.33;85.43
52935;BME280;38802;50.198;19.796;2023-02-23T06:12:35;96172.02;;;-2.31;85.60
52935;BME280;38802;50.198;19.796;2023-02-23T06:15:03;96168.99;;;-2.27;85.49
52935;BME280;38802;50.198;19.796;2023-02-23T06:17:32;96170.76;;;-2.24;85.84
52935;BME280;38802;50.198;19.796;2023-02-23T06:20:00;96171.81;;;-2.25;85.60
52935;BME280;38802;50.198;19.796;2023-02-23T06:22:31;96175.17;;;-2.24;85.61
52935;BME280;38802;50.198;19.796;2023-02-23T06:24:59;96177.70;;;-2.23;85.65
52935;BME280;38802;50.198;19.796;2023-02-23T06:27:31;96177.27;;;-2.20;86.00
52935;BME280;38802;50.198;19.796;2023-02-23T06:29:59;96176.25;;;-2.20;85.61
52935;BME280;38802;50.198;19.796;2023-02-23T06:32:27;96180.63;;;-2.19;85.99
52935;BME280;38802;50.198;19.796;2023-02-23T06:34:56;96176.12;;;-2.15;85.83
52935;BME280;38802;50.198;19.796;2023-02-23T06:37:24;96176.26;;;-2.14;85.82
52935;BME280;38802;50.198;19.796;2023-02-23T06:39:52;96178.63;;;-2.14;85.92
52935;BME280;38802;50.198;19.796;2023-02-23T06:42:20;96176.97;;;-2.11;86.06
52935;BME280;38802;50.198;19.796;2023-02-23T06:44:48;96176.93;;;-2.09;85.95
52935;BME280;38802;50.198;19.796;2023-02-23T06:47:16;96176.87;;;-2.08;86.19
52935;BME280;38802;50.198;19.796;2023-02-23T06:49:44;96178.48;;;-2.05;86.32
52935;BME280;38802;50.198;19.796;2023-02-23T06:52:13;96175.77;;;-2.00;86.30
52935;BME280;38802;50.198;19.796;2023-02-23T06:54:42;96175.73;;;-1.99;86.47
52935;BME280;38802;50.198;19.796;2023-02-23T06:57:10;96174.09;;;-1.96;86.18
52935;BME280;38802;50.198;19.796;2023-02-23T06:59:39;96176.95;;;-1.90;86.44
52935;BME280;38802;50.198;19.796;2023-02-23T07:02:09;96175.86;;;-1.89;86.58
52935;BME280;38802;50.198;19.796;2023-02-23T07:04:37;96175.20;;;-1.89;86.62
52935;BME280;38802;50.198;19.796;2023-02-23T07:07:06;96173.92;;;-1.82;87.00
52935;BME280;38802;50.198;19.796;2023-02-23T07:09:34;96175.67;;;-1.78;86.71
52935;BME280;38802;50.198;19.796;2023-02-23T07:12:02;96177.02;;;-1.72;86.63
52935;BME280;38802;50.198;19.796;2023-02-23T07:14:31;96176.92;;;-1.64;86.55
52935;BME280;38802;50.198;19.796;2023-02-23T07:16:59;96177.56;;;-1.59;86.53
52935;BME280;38802;50.198;19.796;2023-02-23T07:19:28;96178.98;;;-1.51;86.65
52935;BME280;38802;50.198;19.796;2023-02-23T07:21:57;96182.27;;;-1.43;86.85
52935;BME280;38802;50.198;19.796;2023-02-23T07:24:25;96185.08;;;-1.40;86.65
52935;BME280;38802;50.198;19.796;2023-02-23T07:26:54;96180.86;;;-1.32;86.75
52935;BME280;38802;50.198;19.796;2023-02-23T07:31:23;96180.02;;;-1.14;86.51
52935;BME280;38802;50.198;19.796;2023-02-23T07:33:52;96176.11;;;-1.01;86.81
52935;BME280;38802;50.198;19.796;2023-02-23T07:36:21;96176.66;;;-0.92;86.68
52935;BME280;38802;50.198;19.796;2023-02-23T07:38:48;96176.94;;;-0.86;86.42
52935;BME280;38802;50.198;19.796;2023-02-23T07:41:15;96176.96;;;-0.78;86.46
52935;BME280;38802;50.198;19.796;2023-02-23T07:43:42;96178.29;;;-0.72;86.00
52935;BME280;38802;50.198;19.796;2023-02-23T07:46:09;96180.80;;;-0.71;86.18
52935;BME280;38802;50.198;19.796;2023-02-23T07:48:36;96176.19;;;-0.67;86.41
52935;BME280;38802;50.198;19.796;2023-02-23T07:51:08;96175.80;;;-0.61;86.16
52935;BME280;38802;50.198;19.796;2023-02-23T07:53:36;96171.59;;;-0.58;85.88
52935;BME280;38802;50.198;19.796;2023-02-23T07:56:03;96170.29;;;-0.55;86.04
52935;BME280;38802;50.198;19.796;2023-02-23T07:58:30;96168.23;;;-0.47;86.05
52935;BME280;38802;50.198;19.796;2023-02-23T08:00:57;96169.52;;;-0.40;85.92
52935;BME280;38802;50.198;19.796;2023-02-23T08:03:24;96170.89;;;-0.36;86.03
52935;BME280;38802;50.198;19.796;2023-02-23T08:05:51;96172.80;;;-0.28;85.59
52935;BME280;38802;50.198;19.796;2023-02-23T08:08:18;96171.04;;;-0.23;85.73
52935;BME280;38802;50.198;19.796;2023-02-23T08:10:45;96170.50;;;-0.18;85.71
52935;BME280;38802;50.198;19.796;2023-02-23T08:13:16;96170.43;;;-0.09;85.70
52935;BME280;38802;50.198;19.796;2023-02-23T08:15:43;96169.71;;;0.02;85.52
52935;BME280;38802;50.198;19.796;2023-02-23T08:18:10;96168.40;;;0.08;85.60
52935;BME280;38802;50.198;19.796;2023-02-23T08:20:36;96170.74;;;0.17;85.82
52935;BME280;38802;50.198;19.796;2023-02-23T08:23:03;96165.69;;;0.27;85.54
52935;BME280;38802;50.198;19.796;2023-02-23T08:25:30;96165.23;;;0.38;85.57
52935;BME280;38802;50.198;19.796;2023-02-23T08:27:57;96163.29;;;0.44;85.15
52935;BME280;38802;50.198;19.796;2023-02-23T08:30:31;96162.70;;;0.49;85.23
52935;BME280;38802;50.198;19.796;2023-02-23T08:32:59;96163.24;;;0.56;85.14
52935;BME280;38802;50.198;19.796;2023-02-23T08:35:27;96162.25;;;0.67;85.05
52935;BME280;38802;50.198;19.796;2023-02-23T08:37:56;96160.41;;;0.77;84.97
52935;BME280;38802;50.198;19.796;2023-02-23T08:40:23;96162.84;;;0.88;85.00
52935;BME280;38802;50.198;19.796;2023-02-23T08:42:50;96161.55;;;1.02;84.86
52935;BME280;38802;50.198;19.796;2023-02-23T08:45:19;96164.79;;;1.10;84.56
52935;BME280;38802;50.198;19.796;2023-02-23T08:47:46;96161.24;;;1.16;84.41
52935;BME280;38802;50.198;19.796;2023-02-23T08:50:13;96158.91;;;1.21;84.43
52935;BME280;38802;50.198;19.796;2023-02-23T08:52:40;96162.10;;;1.27;84.24
52935;BME280;38802;50.198;19.796;2023-02-23T08:55:09;96159.82;;;1.32;84.58
52935;BME280;38802;50.198;19.796;2023-02-23T08:57:37;96160.59;;;1.41;84.25
52935;BME280;38802;50.198;19.796;2023-02-23T09:00:04;96160.96;;;1.48;83.92
52935;BME280;38802;50.198;19.796;2023-02-23T09:02:40;96161.28;;;1.51;84.19
52935;BME280;38802;50.198;19.796;2023-02-23T09:05:08;96154.15;;;1.61;83.70
52935;BME280;38802;50.198;19.796;2023-02-23T09:07:37;96155.93;;;1.67;83.33
52935;BME280;38802;50.198;19.796;2023-02-23T09:10:05;96156.45;;;1.74;83.64
52935;BME280;38802;50.198;19.796;2023-02-23T09:12:32;96152.52;;;1.84;83.51
52935;BME280;38802;50.198;19.796;2023-02-23T09:14:59;96152.21;;;1.94;83.45
52935;BME280;38802;50.198;19.796;2023-02-23T09:17:26;96151.48;;;2.02;83.06
52935;BME280;38802;50.198;19.796;2023-02-23T09:19:53;96150.19;;;2.10;83.19
52935;BME280;38802;50.198;19.796;2023-02-23T09:22:20;96154.36;;;2.23;82.69
52935;BME280;38802;50.198;19.796;2023-02-23T09:25:26;96155.16;;;2.34;82.51
52935;BME280;38802;50.198;19.796;2023-02-23T09:27:55;96160.59;;;2.42;82.70
52935;BME280;38802;50.198;19.796;2023-02-23T09:30:22;96160.34;;;2.50;82.47
52935;BME280;38802;50.198;19.796;2023-02-23T09:32:49;96163.02;;;2.55;82.45
52935;BME280;38802;50.198;19.796;2023-02-23T09:35:18;96164.15;;;2.56;81.74
52935;BME280;38802;50.198;19.796;2023-02-23T09:37:50;96160.21;;;2.52;81.99
52935;BME280;38802;50.198;19.796;2023-02-23T09:40:21;96161.16;;;2.54;81.94
52935;BME280;38802;50.198;19.796;2023-02-23T09:50:37;96158.48;;;2.60;81.98
52935;BME280;38802;50.198;19.796;2023-02-23T09:53:29;96160.15;;;2.61;81.70
52935;BME280;38802;50.198;19.796;2023-02-23T09:56:04;96155.51;;;2.64;81.77
52935;BME280;38802;50.198;19.796;2023-02-23T09:58:33;96155.17;;;2.71;81.11
52935;BME280;38802;50.198;19.796;2023-02-23T10:01:10;96152.70;;;2.72;81.04
52935;BME280;38802;50.198;19.796;2023-02-23T10:06:31;96151.89;;;2.84;81.39
52935;BME280;38802;50.198;19.796;2023-02-23T10:22:20;96144.70;;;3.19;80.73
52935;BME280;38802;50.198;19.796;2023-02-23T10:24:54;96135.94;;;3.22;80.63
52935;BME280;38802;50.198;19.796;2023-02-23T10:27:25;96133.75;;;3.24;80.42
52935;BME280;38802;50.198;19.796;2023-02-23T10:29:56;96131.14;;;3.28;80.35
52935;BME280;38802;50.198;19.796;2023-02-23T10:32:45;96132.98;;;3.32;80.20
52935;BME280;38802;50.198;19.796;2023-02-23T10:35:17;96125.00;;;3.36;80.07
52935;BME280;38802;50.198;19.796;2023-02-23T10:37:46;96122.98;;;3.42;80.28
52935;BME280;38802;50.198;19.796;2023-02-23T10:40:32;96122.83;;;3.51;80.58
52935;BME280;38802;50.198;19.796;2023-02-23T10:43:01;96119.95;;;3.63;80.17
52935;BME280;38802;50.198;19.796;2023-02-23T10:45:29;96120.17;;;3.67;79.91
52935;BME280;38802;50.198;19.796;2023-02-23T10:48:06;96117.73;;;3.74;80.16
52935;BME280;38802;50.198;19.796;2023-02-23T10:50:36;96114.98;;;3.83;80.07
52935;BME280;38802;50.198;19.796;2023-02-23T10:53:12;96115.13;;;3.86;80.06
52935;BME280;38802;50.198;19.796;2023-02-23T10:55:45;96109.21;;;3.91;79.79
52935;BME280;38802;50.198;19.796;2023-02-23T10:58:19;96111.21;;;3.98;80.08
52935;BME280;38802;50.198;19.796;2023-02-23T11:00:57;96107.20;;;4.05;79.78
52935;BME280;38802;50.198;19.796;2023-02-23T11:03:39;96101.50;;;4.14;79.37
52935;BME280;38802;50.198;19.796;2023-02-23T11:06:44;96100.21;;;4.21;79.11
52935;BME280;38802;50.198;19.796;2023-02-23T11:09:28;96095.48;;;4.28;78.93
52935;BME280;38802;50.198;19.796;2023-02-23T11:14:49;96093.95;;;4.31;78.48
52935;BME280;38802;50.198;19.796;2023-02-23T11:17:32;96092.06;;;4.34;78.49
52935;BME280;38802;50.198;19.796;2023-02-23T11:20:04;96091.75;;;4.39;78.09
52935;BME280;38802;50.198;19.796;2023-02-23T11:22:35;96086.86;;;4.41;78.20
52935;BME280;38802;50.198;19.796;2023-02-23T11:25:13;96088.80;;;4.46;78.53
52935;BME280;38802;50.198;19.796;2023-02-23T11:27:46;96089.85;;;4.54;78.32
52935;BME280;38802;50.198;19.796;2023-02-23T11:30:20;96088.90;;;4.61;77.87
52935;BME280;38802;50.198;19.796;2023-02-23T11:32:52;96087.58;;;4.65;78.08
52935;BME280;38802;50.198;19.796;2023-02-23T11:37:49;96076.27;;;4.76;77.33
52935;BME280;38802;50.198;19.796;2023-02-23T11:42:52;96067.40;;;4.86;76.96
52935;BME280;38802;50.198;19.796;2023-02-23T11:45:21;96070.25;;;4.90;76.48
52935;BME280;38802;50.198;19.796;2023-02-23T11:47:51;96068.55;;;4.92;76.52
52935;BME280;38802;50.198;19.796;2023-02-23T11:52:55;96070.27;;;4.98;76.84
52935;BME280;38802;50.198;19.796;2023-02-23T11:55:23;96066.73;;;5.04;76.47
52935;BME280;38802;50.198;19.796;2023-02-23T11:57:51;96066.38;;;5.10;76.96
52935;BME280;38802;50.198;19.796;2023-02-23T12:00:24;96064.70;;;5.17;76.78
52935;BME280;38802;50.198;19.796;2023-02-23T12:02:58;96056.46;;;5.25;76.71
52935;BME280;38802;50.198;19.796;2023-02-23T12:05:29;96053.02;;;5.28;76.30
52935;BME280;38802;50.198;19.796;2023-02-23T12:08:08;96055.66;;;5.30;76.61
52935;BME280;38802;50.198;19.796;2023-02-23T12:10:41;96053.51;;;5.36;76.43
52935;BME280;38802;50.198;19.796;2023-02-23T12:13:11;96055.96;;;5.44;76.57
52935;BME280;38802;50.198;19.796;2023-02-23T12:15:56;96050.64;;;5.49;76.34
52935;BME280;38802;50.198;19.796;2023-02-23T12:19:13;96047.51;;;5.52;76.98
52935;BME280;38802;50.198;19.796;2023-02-23T12:21:49;96046.70;;;5.59;76.86
52935;BME280;38802;50.198;19.796;2023-02-23T12:24:30;96044.01;;;5.63;76.87
52935;BME280;38802;50.198;19.796;2023-02-23T12:32:21;96038.25;;;5.78;76.66
52935;BME280;38802;50.198;19.796;2023-02-23T12:40:20;96034.85;;;5.95;75.92
52935;BME280;38802;50.198;19.796;2023-02-23T12:43:14;96034.39;;;5.91;75.80
52935;BME280;38802;50.198;19.796;2023-02-23T12:45:49;96028.84;;;5.89;75.43
52935;BME280;38802;50.198;19.796;2023-02-23T12:51:38;96021.65;;;5.84;75.73
52935;BME280;38802;50.198;19.796;2023-02-23T12:54:08;96021.37;;;5.82;75.17
52935;BME280;38802;50.198;19.796;2023-02-23T12:56:57;96017.64;;;5.79;75.78
52935;BME280;38802;50.198;19.796;2023-02-23T12:59:49;96017.02;;;5.83;76.00
52935;BME280;38802;50.198;19.796;2023-02-23T13:02:46;96013.21;;;5.88;75.98
52935;BME280;38802;50.198;19.796;2023-02-23T13:05:30;96013.22;;;5.91;75.67
52935;BME280;38802;50.198;19.796;2023-02-23T13:07:59;96009.97;;;5.91;75.67
52935;BME280;38802;50.198;19.796;2023-02-23T13:10:57;96008.82;;;5.90;75.53
52935;BME280;38802;50.198;19.796;2023-02-23T13:13:32;96008.17;;;5.89;75.40
52935;BME280;38802;50.198;19.796;2023-02-23T13:16:06;96005.91;;;5.92;75.85
52935;BME280;38802;50.198;19.796;2023-02-23T13:21:16;95999.06;;;5.99;75.82
52935;BME280;38802;50.198;19.796;2023-02-23T13:28:00;95997.09;;;6.11;75.75
52935;BME280;38802;50.198;19.796;2023-02-23T13:30:30;95996.69;;;6.14;75.69
52935;BME280;38802;50.198;19.796;2023-02-23T13:33:14;95991.13;;;6.15;75.15
52935;BME280;38802;50.198;19.796;2023-02-23T13:35:45;95986.40;;;6.13;75.43
52935;BME280;38802;50.198;19.796;2023-02-23T13:38:18;95984.42;;;6.12;75.05
52935;BME280;38802;50.198;19.796;2023-02-23T13:46:59;95975.65;;;6.11;75.25
52935;BME280;38802;50.198;19.796;2023-02-23T13:52:12;95971.30;;;6.10;75.34
52935;BME280;38802;50.198;19.796;2023-02-23T13:54:55;95969.63;;;6.11;75.33
52935;BME280;38802;50.198;19.796;2023-02-23T13:57:26;95963.31;;;6.13;75.08
52935;BME280;38802;50.198;19.796;2023-02-23T13:59:55;95963.48;;;6.15;75.36
52935;BME280;38802;50.198;19.796;2023-02-23T14:04:56;95956.56;;;6.23;75.78
52935;BME280;38802;50.198;19.796;2023-02-23T14:07:31;95956.69;;;6.31;75.72
52935;BME280;38802;50.198;19.796;2023-02-23T14:10:26;95958.49;;;6.33;75.57
52935;BME280;38802;50.198;19.796;2023-02-23T14:13:06;95955.63;;;6.31;75.39
52935;BME280;38802;50.198;19.796;2023-02-23T14:21:25;95947.61;;;6.25;75.63
52935;BME280;38802;50.198;19.796;2023-02-23T14:24:24;95944.39;;;6.29;75.67
52935;BME280;38802;50.198;19.796;2023-02-23T14:32:44;95936.27;;;6.27;75.44
52935;BME280;38802;50.198;19.796;2023-02-23T14:38:02;95929.62;;;6.21;75.50
52935;BME280;38802;50.198;19.796;2023-02-23T14:40:34;95925.88;;;6.18;75.46
52935;BME280;38802;50.198;19.796;2023-02-23T14:46:03;95925.77;;;6.15;75.59
52935;BME280;38802;50.198;19.796;2023-02-23T14:48:38;95926.36;;;6.13;75.54
52935;BME280;38802;50.198;19.796;2023-02-23T14:51:13;95927.45;;;6.13;75.63
52935;BME280;38802;50.198;19.796;2023-02-23T14:53:46;95927.05;;;6.11;75.68
52935;BME280;38802;50.198;19.796;2023-02-23T14:56:22;95922.11;;;6.10;75.60
52935;BME280;38802;50.198;19.796;2023-02-23T14:59:06;95916.73;;;6.08;75.79
52935;BME280;38802;50.198;19.796;2023-02-23T15:01:38;95916.73;;;6.06;75.74
52935;BME280;38802;50.198;19.796;2023-02-23T15:04:19;95911.56;;;6.03;75.73
52935;BME280;38802;50.198;19.796;2023-02-23T15:06:54;95905.66;;;6.03;75.78
52935;BME280;38802;50.198;19.796;2023-02-23T15:09:31;95901.55;;;6.03;75.74
52935;BME280;38802;50.198;19.796;2023-02-23T15:12:24;95898.61;;;6.03;75.88
52935;BME280;38802;50.198;19.796;2023-02-23T15:14:57;95894.85;;;6.00;75.86
52935;BME280;38802;50.198;19.796;2023-02-23T15:17:29;95891.58;;;6.00;75.99
52935;BME280;38802;50.198;19.796;2023-02-23T15:20:05;95890.33;;;6.01;76.10
52935;BME280;38802;50.198;19.796;2023-02-23T15:22:49;95883.45;;;6.00;76.00